sensor_id;sensor_type;location;lat;lon;timestamp;temperature;humidity
78619;DHT22;67941;52.506;5.470;2023-06-22T00:00:18;18.30;65.80
78619;DHT22;67941;52.506;5.470;2023-06-22T00:02:47;18.20;65.90
78619;DHT22;67941;52.506;5.470;2023-06-22T00:05:16;18.20;66.00
78619;DHT22;67941;52.506;5.470;2023-06-22T00:07:45;18.20;66.20
78619;DHT22;67941;52.506;5.470;2023-06-22T00:10:14;18.20;66.20
78619;DHT22;67941;52.506;5.470;2023-06-22T00:12:42;18.20;66.40
78619;DHT22;67941;52.506;5.470;2023-06-22T00:15:11;18.20;66.50
78619;DHT22;67941;52.506;5.470;2023-06-22T00:17:43;18.20;66.60
78619;DHT22;67941;52.506;5.470;2023-06-22T00:20:12;18.10;66.70
78619;DHT22;67941;52.506;5.470;2023-06-22T00:22:40;18.10;66.80
78619;DHT22;67941;52.506;5.470;2023-06-22T00:25:09;18.10;66.80
78619;DHT22;67941;52.506;5.470;2023-06-22T00:27:39;18.10;66.90
78619;DHT22;67941;52.506;5.470;2023-06-22T00:30:09;18.10;67.00
78619;DHT22;67941;52.506;5.470;2023-06-22T00:32:38;18.10;67.10
78619;DHT22;67941;52.506;5.470;2023-06-22T00:35:09;18.10;67.20
78619;DHT22;67941;52.506;5.470;2023-06-22T00:37:39;18.00;67.30
78619;DHT22;67941;52.506;5.470;2023-06-22T00:40:09;18.00;67.30
78619;DHT22;67941;52.506;5.470;2023-06-22T00:42:40;18.00;67.40
78619;DHT22;67941;52.506;5.470;2023-06-22T00:45:09;18.00;67.50
78619;DHT22;67941;52.506;5.470;2023-06-22T00:47:38;18.00;67.60
78619;DHT22;67941;52.506;5.470;2023-06-22T00:50:15;18.00;67.60
78619;DHT22;67941;52.506;5.470;2023-06-22T00:52:48;17.90;67.80
78619;DHT22;67941;52.506;5.470;2023-06-22T00:55:17;17.80;67.80
78619;DHT22;67941;52.506;5.470;2023-06-22T00:57:46;17.80;67.90
78619;DHT22;67941;52.506;5.470;2023-06-22T01:00:16;17.80;68.00
78619;DHT22;67941;52.506;5.470;2023-06-22T01:02:46;17.80;68.00
78619;DHT22;67941;52.506;5.470;2023-06-22T01:05:21;17.70;68.20
78619;DHT22;67941;52.506;5.470;2023-06-22T01:08:00;17.70;68.20
78619;DHT22;67941;52.506;5.470;2023-06-22T01:10:38;17.60;68.40
78619;DHT22;67941;52.506;5.470;2023-06-22T01:13:16;17.60;68.40
78619;DHT22;67941;52.506;5.470;2023-06-22T01:15:51;17.60;68.50
78619;DHT22;67941;52.506;5.470;2023-06-22T01:18:22;17.60;68.60
78619;DHT22;67941;52.506;5.470;2023-06-22T01:20:56;17.50;68.70
78619;DHT22;67941;52.506;5.470;2023-06-22T01:23:33;17.50;68.90
78619;DHT22;67941;52.506;5.470;2023-06-22T01:26:05;17.50;69.00
78619;DHT22;67941;52.506;5.470;2023-06-22T01:28:45;17.50;68.90
78619;DHT22;67941;52.506;5.470;2023-06-22T01:31:17;17.50;68.90
78619;DHT22;67941;52.506;5.470;2023-06-22T01:33:51;17.50;68.90
78619;DHT22;67941;52.506;5.470;2023-06-22T01:36:22;17.50;69.00
78619;DHT22;67941;52.506;5.470;2023-06-22T01:38:53;17.50;69.10
78619;DHT22;67941;52.506;5.470;2023-06-22T01:41:25;17.50;69.20
78619;DHT22;67941;52.506;5.470;2023-06-22T01:43:57;17.50;69.30
78619;DHT22;67941;52.506;5.470;2023-06-22T01:46:27;17.50;69.50
78619;DHT22;67941;52.506;5.470;2023-06-22T01:48:57;17.50;69.40
78619;DHT22;67941;52.506;5.470;2023-06-22T01:51:26;17.50;69.60
78619;DHT22;67941;52.506;5.470;2023-06-22T01:53:59;17.50;69.60
78619;DHT22;67941;52.506;5.470;2023-06-22T01:56:28;17.40;69.70
78619;DHT22;67941;52.506;5.470;2023-06-22T01:59:03;17.40;69.80
78619;DHT22;67941;52.506;5.470;2023-06-22T02:01:42;17.40;69.90
78619;DHT22;67941;52.506;5.470;2023-06-22T02:04:15;17.40;70.00
78619;DHT22;67941;52.506;5.470;2023-06-22T02:06:47;17.40;70.00
78619;DHT22;67941;52.506;5.470;2023-06-22T02:09:19;17.40;70.10
78619;DHT22;67941;52.506;5.470;2023-06-22T02:11:51;17.40;70.20
78619;DHT22;67941;52.506;5.470;2023-06-22T02:14:24;17.40;70.20
78619;DHT22;67941;52.506;5.470;2023-06-22T02:16:54;17.30;70.20
78619;DHT22;67941;52.506;5.470;2023-06-22T02:19:25;17.30;70.30
78619;DHT22;67941;52.506;5.470;2023-06-22T02:21:59;17.20;70.30
78619;DHT22;67941;52.506;5.470;2023-06-22T02:24:28;17.20;70.50
78619;DHT22;67941;52.506;5.470;2023-06-22T02:26:58;17.20;70.60
78619;DHT22;67941;52.506;5.470;2023-06-22T02:29:29;17.20;70.60
78619;DHT22;67941;52.506;5.470;2023-06-22T02:31:58;17.20;70.80
78619;DHT22;67941;52.506;5.470;2023-06-22T02:34:27;17.20;70.80
78619;DHT22;67941;52.506;5.470;2023-06-22T02:36:56;17.20;70.80
78619;DHT22;67941;52.506;5.470;2023-06-22T02:39:28;17.10;70.90
78619;DHT22;67941;52.506;5.470;2023-06-22T02:41:57;17.10;71.00
78619;DHT22;67941;52.506;5.470;2023-06-22T02:44:26;17.10;71.10
78619;DHT22;67941;52.506;5.470;2023-06-22T02:46:57;17.00;71.10
78619;DHT22;67941;52.506;5.470;2023-06-22T02:49:26;17.00;71.20
78619;DHT22;67941;52.506;5.470;2023-06-22T02:51:56;17.00;71.30
78619;DHT22;67941;52.506;5.470;2023-06-22T02:54:26;17.00;71.50
78619;DHT22;67941;52.506;5.470;2023-06-22T02:56:55;17.00;71.50
78619;DHT22;67941;52.506;5.470;2023-06-22T02:59:24;17.00;71.60
78619;DHT22;67941;52.506;5.470;2023-06-22T03:02:03;16.90;71.70
78619;DHT22;67941;52.506;5.470;2023-06-22T03:04:33;16.90;71.80
78619;DHT22;67941;52.506;5.470;2023-06-22T03:07:02;16.90;71.80
78619;DHT22;67941;52.506;5.470;2023-06-22T03:09:32;16.90;71.90
78619;DHT22;67941;52.506;5.470;2023-06-22T03:12:01;16.90;71.90
78619;DHT22;67941;52.506;5.470;2023-06-22T03:14:39;16.90;71.90
78619;DHT22;67941;52.506;5.470;2023-06-22T03:17:10;16.80;72.00
78619;DHT22;67941;52.506;5.470;2023-06-22T03:19:39;16.80;72.10
78619;DHT22;67941;52.506;5.470;2023-06-22T03:22:08;16.80;72.20
78619;DHT22;67941;52.506;5.470;2023-06-22T03:24:38;16.80;72.20
78619;DHT22;67941;52.506;5.470;2023-06-22T03:27:07;16.80;72.30
78619;DHT22;67941;52.506;5.470;2023-06-22T03:29:36;16.80;72.20
78619;DHT22;67941;52.506;5.470;2023-06-22T03:32:06;16.70;72.30
78619;DHT22;67941;52.506;5.470;2023-06-22T03:34:37;16.70;72.40
78619;DHT22;67941;52.506;5.470;2023-06-22T03:37:06;16.70;72.50
78619;DHT22;67941;52.506;5.470;2023-06-22T03:39:35;16.70;72.50
78619;DHT22;67941;52.506;5.470;2023-06-22T03:42:05;16.70;72.50
78619;DHT22;67941;52.506;5.470;2023-06-22T03:44:34;16.70;72.60
78619;DHT22;67941;52.506;5.470;2023-06-22T03:47:05;16.70;72.70
78619;DHT22;67941;52.506;5.470;2023-06-22T03:49:38;16.70;72.70
78619;DHT22;67941;52.506;5.470;2023-06-22T03:52:07;16.80;72.80
78619;DHT22;67941;52.506;5.470;2023-06-22T03:54:36;16.80;72.80
78619;DHT22;67941;52.506;5.470;2023-06-22T03:57:05;16.80;72.80
78619;DHT22;67941;52.506;5.470;2023-06-22T03:59:34;16.80;72.90
78619;DHT22;67941;52.506;5.470;2023-06-22T04:02:04;16.80;72.90
78619;DHT22;67941;52.506;5.470;2023-06-22T04:04:32;16.90;72.90
78619;DHT22;67941;52.506;5.470;2023-06-22T04:07:04;16.90;73.00
78619;DHT22;67941;52.506;5.470;2023-06-22T04:09:33;16.90;73.10
78619;DHT22;67941;52.506;5.470;2023-06-22T04:12:03;16.90;73.10
78619;DHT22;67941;52.506;5.470;2023-06-22T04:14:32;16.90;73.20
78619;DHT22;67941;52.506;5.470;2023-06-22T04:17:01;17.00;73.30
78619;DHT22;67941;52.506;5.470;2023-06-22T04:19:30;17.00;73.30
78619;DHT22;67941;52.506;5.470;2023-06-22T04:21:59;17.00;73.50
78619;DHT22;67941;52.506;5.470;2023-06-22T04:24:30;17.10;73.60
78619;DHT22;67941;52.506;5.470;2023-06-22T04:27:00;17.20;73.70
78619;DHT22;67941;52.506;5.470;2023-06-22T04:29:29;17.30;73.80
78619;DHT22;67941;52.506;5.470;2023-06-22T04:31:58;17.50;74.00
78619;DHT22;67941;52.506;5.470;2023-06-22T04:34:29;17.60;74.00
78619;DHT22;67941;52.506;5.470;2023-06-22T04:36:58;17.80;74.00
78619;DHT22;67941;52.506;5.470;2023-06-22T04:39:29;18.00;74.10
78619;DHT22;67941;52.506;5.470;2023-06-22T04:41:58;18.30;73.90
78619;DHT22;67941;52.506;5.470;2023-06-22T04:44:28;18.50;73.80
78619;DHT22;67941;52.506;5.470;2023-06-22T04:46:58;18.80;73.50
78619;DHT22;67941;52.506;5.470;2023-06-22T04:49:30;18.80;73.40
78619;DHT22;67941;52.506;5.470;2023-06-22T04:52:05;18.90;73.50
78619;DHT22;67941;52.506;5.470;2023-06-22T04:54:38;19.00;73.50
78619;DHT22;67941;52.506;5.470;2023-06-22T04:57:14;19.20;73.50
78619;DHT22;67941;52.506;5.470;2023-06-22T04:59:43;19.50;73.30
78619;DHT22;67941;52.506;5.470;2023-06-22T05:02:11;19.70;73.10
78619;DHT22;67941;52.506;5.470;2023-06-22T05:04:41;20.00;72.90
78619;DHT22;67941;52.506;5.470;2023-06-22T05:07:10;20.30;72.80
78619;DHT22;67941;52.506;5.470;2023-06-22T05:09:41;20.50;72.70
78619;DHT22;67941;52.506;5.470;2023-06-22T05:12:10;20.80;72.50
78619;DHT22;67941;52.506;5.470;2023-06-22T05:14:39;21.00;72.30
78619;DHT22;67941;52.506;5.470;2023-06-22T05:17:08;21.30;72.10
78619;DHT22;67941;52.506;5.470;2023-06-22T05:19:39;21.50;71.90
78619;DHT22;67941;52.506;5.470;2023-06-22T05:22:10;21.50;71.80
78619;DHT22;67941;52.506;5.470;2023-06-22T05:24:42;21.70;71.80
78619;DHT22;67941;52.506;5.470;2023-06-22T05:27:11;21.60;71.60
78619;DHT22;67941;52.506;5.470;2023-06-22T05:29:41;21.50;71.80
78619;DHT22;67941;52.506;5.470;2023-06-22T05:32:09;21.40;72.00
78619;DHT22;67941;52.506;5.470;2023-06-22T05:34:38;21.50;72.00
78619;DHT22;67941;52.506;5.470;2023-06-22T05:37:07;21.50;71.90
78619;DHT22;67941;52.506;5.470;2023-06-22T05:39:38;21.70;71.80
78619;DHT22;67941;52.506;5.470;2023-06-22T05:42:10;21.90;71.50
78619;DHT22;67941;52.506;5.470;2023-06-22T05:44:39;22.00;71.40
78619;DHT22;67941;52.506;5.470;2023-06-22T05:47:08;22.10;71.20
78619;DHT22;67941;52.506;5.470;2023-06-22T05:49:36;22.20;71.20
78619;DHT22;67941;52.506;5.470;2023-06-22T05:52:06;22.50;71.10
78619;DHT22;67941;52.506;5.470;2023-06-22T05:54:35;22.70;70.80
78619;DHT22;67941;52.506;5.470;2023-06-22T05:57:05;23.00;70.60
78619;DHT22;67941;52.506;5.470;2023-06-22T05:59:36;23.20;70.20
78619;DHT22;67941;52.506;5.470;2023-06-22T06:02:05;23.30;70.00
78619;DHT22;67941;52.506;5.470;2023-06-22T06:04:34;23.30;70.10
78619;DHT22;67941;52.506;5.470;2023-06-22T06:07:03;23.30;70.30
78619;DHT22;67941;52.506;5.470;2023-06-22T06:09:32;23.30;70.50
78619;DHT22;67941;52.506;5.470;2023-06-22T06:12:01;23.40;70.60
78619;DHT22;67941;52.506;5.470;2023-06-22T06:14:31;23.40;70.70
78619;DHT22;67941;52.506;5.470;2023-06-22T06:17:02;23.40;70.90
78619;DHT22;67941;52.506;5.470;2023-06-22T06:19:31;23.30;71.10
78619;DHT22;67941;52.506;5.470;2023-06-22T06:22:00;23.30;71.30
78619;DHT22;67941;52.506;5.470;2023-06-22T06:24:29;23.20;71.30
78619;DHT22;67941;52.506;5.470;2023-06-22T06:26:58;23.10;71.20
78619;DHT22;67941;52.506;5.470;2023-06-22T06:29:31;23.10;70.90
78619;DHT22;67941;52.506;5.470;2023-06-22T06:32:03;23.10;70.70
78619;DHT22;67941;52.506;5.470;2023-06-22T06:34:32;23.10;70.50
78619;DHT22;67941;52.506;5.470;2023-06-22T06:37:01;23.00;70.30
78619;DHT22;67941;52.506;5.470;2023-06-22T06:39:33;23.10;70.10
78619;DHT22;67941;52.506;5.470;2023-06-22T06:42:02;23.10;69.80
78619;DHT22;67941;52.506;5.470;2023-06-22T06:44:31;23.00;69.60
78619;DHT22;67941;52.506;5.470;2023-06-22T06:47:03;22.90;69.50
78619;DHT22;67941;52.506;5.470;2023-06-22T06:49:33;22.90;69.40
78619;DHT22;67941;52.506;5.470;2023-06-22T06:52:03;22.80;69.40
78619;DHT22;67941;52.506;5.470;2023-06-22T06:54:32;22.80;69.30
78619;DHT22;67941;52.506;5.470;2023-06-22T06:57:00;22.80;69.30
78619;DHT22;67941;52.506;5.470;2023-06-22T06:59:30;22.80;69.20
78619;DHT22;67941;52.506;5.470;2023-06-22T07:01:59;22.80;69.10
78619;DHT22;67941;52.506;5.470;2023-06-22T07:04:30;22.80;69.10
78619;DHT22;67941;52.506;5.470;2023-06-22T07:07:01;22.80;69.10
78619;DHT22;67941;52.506;5.470;2023-06-22T07:09:30;22.80;69.00
78619;DHT22;67941;52.506;5.470;2023-06-22T07:11:59;22.90;68.90
78619;DHT22;67941;52.506;5.470;2023-06-22T07:14:28;22.80;68.80
78619;DHT22;67941;52.506;5.470;2023-06-22T07:16:57;22.80;68.70
78619;DHT22;67941;52.506;5.470;2023-06-22T07:19:26;22.70;68.80
78619;DHT22;67941;52.506;5.470;2023-06-22T07:22:00;22.70;68.60
78619;DHT22;67941;52.506;5.470;2023-06-22T07:24:29;22.60;68.60
78619;DHT22;67941;52.506;5.470;2023-06-22T07:26:58;22.50;68.70
78619;DHT22;67941;52.506;5.470;2023-06-22T07:29:28;22.50;68.70
78619;DHT22;67941;52.506;5.470;2023-06-22T07:31:58;22.60;68.80
78619;DHT22;67941;52.506;5.470;2023-06-22T07:34:30;22.60;68.70
78619;DHT22;67941;52.506;5.470;2023-06-22T07:37:02;22.70;68.60
78619;DHT22;67941;52.506;5.470;2023-06-22T07:39:31;22.80;68.40
78619;DHT22;67941;52.506;5.470;2023-06-22T07:42:00;22.80;68.40
78619;DHT22;67941;52.506;5.470;2023-06-22T07:44:31;22.80;68.40
78619;DHT22;67941;52.506;5.470;2023-06-22T07:47:00;22.90;68.40
78619;DHT22;67941;52.506;5.470;2023-06-22T07:49:29;23.00;68.40
78619;DHT22;67941;52.506;5.470;2023-06-22T07:51:58;23.10;68.30
78619;DHT22;67941;52.506;5.470;2023-06-22T07:54:30;23.10;68.20
78619;DHT22;67941;52.506;5.470;2023-06-22T07:56:59;23.10;68.10
78619;DHT22;67941;52.506;5.470;2023-06-22T07:59:28;23.00;68.10
78619;DHT22;67941;52.506;5.470;2023-06-22T08:01:56;23.00;68.10
78619;DHT22;67941;52.506;5.470;2023-06-22T08:04:26;22.90;68.10
78619;DHT22;67941;52.506;5.470;2023-06-22T08:06:55;22.90;68.00
78619;DHT22;67941;52.506;5.470;2023-06-22T08:09:23;22.80;68.10
78619;DHT22;67941;52.506;5.470;2023-06-22T08:11:55;22.80;68.10
78619;DHT22;67941;52.506;5.470;2023-06-22T08:14:26;22.80;68.10
78619;DHT22;67941;52.506;5.470;2023-06-22T08:16:55;22.80;68.00
78619;DHT22;67941;52.506;5.470;2023-06-22T08:19:24;22.80;68.00
78619;DHT22;67941;52.506;5.470;2023-06-22T08:21:52;22.80;68.00
78619;DHT22;67941;52.506;5.470;2023-06-22T08:24:21;22.80;68.00
78619;DHT22;67941;52.506;5.470;2023-06-22T08:26:51;22.90;67.90
78619;DHT22;67941;52.506;5.470;2023-06-22T08:29:23;22.90;67.80
78619;DHT22;67941;52.506;5.470;2023-06-22T08:31:52;22.90;67.70
78619;DHT22;67941;52.506;5.470;2023-06-22T08:34:21;22.90;67.80
78619;DHT22;67941;52.506;5.470;2023-06-22T08:36:50;23.00;67.60
78619;DHT22;67941;52.506;5.470;2023-06-22T08:39:20;23.00;67.60
78619;DHT22;67941;52.506;5.470;2023-06-22T08:41:49;23.10;67.50
78619;DHT22;67941;52.506;5.470;2023-06-22T08:44:18;23.10;67.50
78619;DHT22;67941;52.506;5.470;2023-06-22T08:46:50;23.10;67.50
78619;DHT22;67941;52.506;5.470;2023-06-22T08:49:19;23.10;67.30
78619;DHT22;67941;52.506;5.470;2023-06-22T08:51:48;23.10;67.40
78619;DHT22;67941;52.506;5.470;2023-06-22T08:54:19;23.20;67.30
78619;DHT22;67941;52.506;5.470;2023-06-22T08:56:48;23.20;67.20
78619;DHT22;67941;52.506;5.470;2023-06-22T08:59:17;23.20;67.10
78619;DHT22;67941;52.506;5.470;2023-06-22T09:01:46;23.20;67.10
78619;DHT22;67941;52.506;5.470;2023-06-22T09:04:18;23.20;67.00
78619;DHT22;67941;52.506;5.470;2023-06-22T09:07:06;23.20;66.90
78619;DHT22;67941;52.506;5.470;2023-06-22T09:09:35;23.20;66.90
78619;DHT22;67941;52.506;5.470;2023-06-22T09:12:05;23.30;66.80
78619;DHT22;67941;52.506;5.470;2023-06-22T09:14:34;23.30;66.80
78619;DHT22;67941;52.506;5.470;2023-06-22T09:17:03;23.40;66.60
78619;DHT22;67941;52.506;5.470;2023-06-22T09:19:35;23.50;66.60
78619;DHT22;67941;52.506;5.470;2023-06-22T09:22:04;23.50;66.60
78619;DHT22;67941;52.506;5.470;2023-06-22T09:24:33;23.60;66.50
78619;DHT22;67941;52.506;5.470;2023-06-22T09:27:03;23.60;66.30
78619;DHT22;67941;52.506;5.470;2023-06-22T09:29:32;23.70;66.20
78619;DHT22;67941;52.506;5.470;2023-06-22T09:32:01;23.80;66.20
78619;DHT22;67941;52.506;5.470;2023-06-22T09:34:37;23.90;66.20
78619;DHT22;67941;52.506;5.470;2023-06-22T09:37:06;24.00;66.10
78619;DHT22;67941;52.506;5.470;2023-06-22T09:39:38;24.20;66.00
78619;DHT22;67941;52.506;5.470;2023-06-22T09:42:07;24.30;65.70
78619;DHT22;67941;52.506;5.470;2023-06-22T09:44:36;24.40;65.60
78619;DHT22;67941;52.506;5.470;2023-06-22T09:47:06;24.40;65.50
78619;DHT22;67941;52.506;5.470;2023-06-22T09:49:38;24.40;65.30
78619;DHT22;67941;52.506;5.470;2023-06-22T09:52:07;24.40;65.20
78619;DHT22;67941;52.506;5.470;2023-06-22T09:54:37;24.40;65.10
78619;DHT22;67941;52.506;5.470;2023-06-22T09:57:06;24.50;65.00
78619;DHT22;67941;52.506;5.470;2023-06-22T09:59:36;24.60;64.80
78619;DHT22;67941;52.506;5.470;2023-06-22T10:02:06;24.70;64.70
78619;DHT22;67941;52.506;5.470;2023-06-22T10:04:37;24.90;64.60
78619;DHT22;67941;52.506;5.470;2023-06-22T10:07:06;25.00;64.40
78619;DHT22;67941;52.506;5.470;2023-06-22T10:09:35;25.10;64.10
78619;DHT22;67941;52.506;5.470;2023-06-22T10:12:05;25.10;63.90
78619;DHT22;67941;52.506;5.470;2023-06-22T10:14:34;25.10;63.80
78619;DHT22;67941;52.506;5.470;2023-06-22T10:17:04;25.20;63.70
78619;DHT22;67941;52.506;5.470;2023-06-22T10:19:33;25.30;63.50
78619;DHT22;67941;52.506;5.470;2023-06-22T10:22:06;25.30;63.40
78619;DHT22;67941;52.506;5.470;2023-06-22T10:24:35;25.30;63.30
78619;DHT22;67941;52.506;5.470;2023-06-22T10:27:10;25.40;63.20
78619;DHT22;67941;52.506;5.470;2023-06-22T10:29:41;25.50;63.00
78619;DHT22;67941;52.506;5.470;2023-06-22T10:32:10;25.50;62.90
78619;DHT22;67941;52.506;5.470;2023-06-22T10:34:39;25.60;62.80
78619;DHT22;67941;52.506;5.470;2023-06-22T10:37:10;25.70;62.80
78619;DHT22;67941;52.506;5.470;2023-06-22T10:39:39;25.80;62.50
78619;DHT22;67941;52.506;5.470;2023-06-22T10:42:08;25.90;62.40
78619;DHT22;67941;52.506;5.470;2023-06-22T10:44:37;26.00;62.30
78619;DHT22;67941;52.506;5.470;2023-06-22T10:47:09;26.10;62.00
78619;DHT22;67941;52.506;5.470;2023-06-22T10:49:38;26.20;61.80
78619;DHT22;67941;52.506;5.470;2023-06-22T10:52:10;26.30;61.70
78619;DHT22;67941;52.506;5.470;2023-06-22T10:54:41;26.30;61.40
78619;DHT22;67941;52.506;5.470;2023-06-22T10:57:10;26.30;61.40
78619;DHT22;67941;52.506;5.470;2023-06-22T10:59:39;26.30;61.20
78619;DHT22;67941;52.506;5.470;2023-06-22T11:02:07;26.40;61.10
78619;DHT22;67941;52.506;5.470;2023-06-22T11:04:36;26.40;61.00
78619;DHT22;67941;52.506;5.470;2023-06-22T11:07:06;26.40;60.90
78619;DHT22;67941;52.506;5.470;2023-06-22T11:09:37;26.40;60.70
78619;DHT22;67941;52.506;5.470;2023-06-22T11:12:08;26.40;60.50
78619;DHT22;67941;52.506;5.470;2023-06-22T11:14:37;26.40;60.40
78619;DHT22;67941;52.506;5.470;2023-06-22T11:17:07;26.40;60.30
78619;DHT22;67941;52.506;5.470;2023-06-22T11:19:36;26.40;60.30
78619;DHT22;67941;52.506;5.470;2023-06-22T11:22:05;26.40;60.20
78619;DHT22;67941;52.506;5.470;2023-06-22T11:24:37;26.40;60.10
78619;DHT22;67941;52.506;5.470;2023-06-22T11:27:06;26.40;60.00
78619;DHT22;67941;52.506;5.470;2023-06-22T11:29:36;26.40;60.00
78619;DHT22;67941;52.506;5.470;2023-06-22T11:32:06;26.40;60.00
78619;DHT22;67941;52.506;5.470;2023-06-22T11:34:35;26.40;59.90
78619;DHT22;67941;52.506;5.470;2023-06-22T11:37:05;26.40;59.90
78619;DHT22;67941;52.506;5.470;2023-06-22T11:39:34;26.50;59.80
78619;DHT22;67941;52.506;5.470;2023-06-22T11:42:06;26.50;59.70
78619;DHT22;67941;52.506;5.470;2023-06-22T11:44:35;26.50;59.60
78619;DHT22;67941;52.506;5.470;2023-06-22T11:47:05;26.50;59.60
78619;DHT22;67941;52.506;5.470;2023-06-22T11:49:34;26.50;59.50
78619;DHT22;67941;52.506;5.470;2023-06-22T11:52:03;26.40;59.40
78619;DHT22;67941;52.506;5.470;2023-06-22T11:54:32;26.40;59.30
78619;DHT22;67941;52.506;5.470;2023-06-22T11:57:01;26.20;59.30
78619;DHT22;67941;52.506;5.470;2023-06-22T11:59:33;26.10;59.40
78619;DHT22;67941;52.506;5.470;2023-06-22T12:02:02;25.90;59.50
78619;DHT22;67941;52.506;5.470;2023-06-22T12:04:33;25.60;59.60
78619;DHT22;67941;52.506;5.470;2023-06-22T12:07:02;25.40;59.70
78619;DHT22;67941;52.506;5.470;2023-06-22T12:09:31;25.00;60.00
78619;DHT22;67941;52.506;5.470;2023-06-22T12:12:00;24.60;60.30
78619;DHT22;67941;52.506;5.470;2023-06-22T12:14:32;24.30;60.50
78619;DHT22;67941;52.506;5.470;2023-06-22T12:17:01;24.00;60.90
78619;DHT22;67941;52.506;5.470;2023-06-22T12:19:30;23.80;61.10
78619;DHT22;67941;52.506;5.470;2023-06-22T12:21:59;23.60;61.40
78619;DHT22;67941;52.506;5.470;2023-06-22T12:24:28;23.40;61.70
78619;DHT22;67941;52.506;5.470;2023-06-22T12:26:57;23.20;61.90
78619;DHT22;67941;52.506;5.470;2023-06-22T12:29:26;23.00;62.20
78619;DHT22;67941;52.506;5.470;2023-06-22T12:31:57;22.80;62.50
78619;DHT22;67941;52.506;5.470;2023-06-22T12:34:26;22.60;62.70
78619;DHT22;67941;52.506;5.470;2023-06-22T12:36:55;22.50;62.90
78619;DHT22;67941;52.506;5.470;2023-06-22T12:39:24;22.50;63.10
78619;DHT22;67941;52.506;5.470;2023-06-22T12:41:53;22.40;63.30
78619;DHT22;67941;52.506;5.470;2023-06-22T12:44:22;22.30;63.50
78619;DHT22;67941;52.506;5.470;2023-06-22T12:46:51;22.30;63.70
78619;DHT22;67941;52.506;5.470;2023-06-22T12:49:22;22.40;63.90
78619;DHT22;67941;52.506;5.470;2023-06-22T12:51:51;22.50;63.90
78619;DHT22;67941;52.506;5.470;2023-06-22T12:54:20;22.60;63.80
78619;DHT22;67941;52.506;5.470;2023-06-22T12:56:50;22.60;63.70
78619;DHT22;67941;52.506;5.470;2023-06-22T12:59:19;22.60;63.70
78619;DHT22;67941;52.506;5.470;2023-06-22T13:01:48;22.60;63.70
78619;DHT22;67941;52.506;5.470;2023-06-22T13:04:17;22.60;63.80
78619;DHT22;67941;52.506;5.470;2023-06-22T13:06:48;22.60;63.90
78619;DHT22;67941;52.506;5.470;2023-06-22T13:09:19;22.70;63.90
78619;DHT22;67941;52.506;5.470;2023-06-22T13:11:48;22.70;64.00
78619;DHT22;67941;52.506;5.470;2023-06-22T13:14:18;22.70;64.00
78619;DHT22;67941;52.506;5.470;2023-06-22T13:16:47;22.70;64.20
78619;DHT22;67941;52.506;5.470;2023-06-22T13:19:16;22.80;64.30
78619;DHT22;67941;52.506;5.470;2023-06-22T13:21:47;22.90;64.20
78619;DHT22;67941;52.506;5.470;2023-06-22T13:24:16;23.00;64.10
78619;DHT22;67941;52.506;5.470;2023-06-22T13:26:45;23.00;64.10
78619;DHT22;67941;52.506;5.470;2023-06-22T13:29:14;23.00;64.00
78619;DHT22;67941;52.506;5.470;2023-06-22T13:31:43;23.00;64.00
78619;DHT22;67941;52.506;5.470;2023-06-22T13:34:12;23.00;64.00
78619;DHT22;67941;52.506;5.470;2023-06-22T13:36:41;22.80;64.00
78619;DHT22;67941;52.506;5.470;2023-06-22T13:39:12;22.70;64.10
78619;DHT22;67941;52.506;5.470;2023-06-22T13:41:41;22.50;64.30
78619;DHT22;67941;52.506;5.470;2023-06-22T13:44:10;22.30;64.50
78619;DHT22;67941;52.506;5.470;2023-06-22T13:46:39;22.20;64.70
78619;DHT22;67941;52.506;5.470;2023-06-22T13:49:08;22.10;65.00
78619;DHT22;67941;52.506;5.470;2023-06-22T13:51:37;22.10;65.20
78619;DHT22;67941;52.506;5.470;2023-06-22T13:54:06;22.10;65.30
78619;DHT22;67941;52.506;5.470;2023-06-22T13:56:37;22.00;65.40
78619;DHT22;67941;52.506;5.470;2023-06-22T13:59:06;22.00;65.50
78619;DHT22;67941;52.506;5.470;2023-06-22T14:01:36;22.00;65.60
78619;DHT22;67941;52.506;5.470;2023-06-22T14:04:05;21.90;65.70
78619;DHT22;67941;52.506;5.470;2023-06-22T14:06:34;21.90;65.80
78619;DHT22;67941;52.506;5.470;2023-06-22T14:09:03;21.90;65.90
78619;DHT22;67941;52.506;5.470;2023-06-22T14:11:32;21.90;66.00
78619;DHT22;67941;52.506;5.470;2023-06-22T14:14:04;21.90;66.10
78619;DHT22;67941;52.506;5.470;2023-06-22T14:16:33;21.90;66.20
78619;DHT22;67941;52.506;5.470;2023-06-22T14:19:02;21.90;66.20
78619;DHT22;67941;52.506;5.470;2023-06-22T14:21:31;22.00;66.30
78619;DHT22;67941;52.506;5.470;2023-06-22T14:24:00;22.10;66.20
78619;DHT22;67941;52.506;5.470;2023-06-22T14:26:28;22.20;66.20
78619;DHT22;67941;52.506;5.470;2023-06-22T14:28:57;22.20;66.20
78619;DHT22;67941;52.506;5.470;2023-06-22T14:31:29;22.30;66.20
78619;DHT22;67941;52.506;5.470;2023-06-22T14:33:58;22.30;66.20
78619;DHT22;67941;52.506;5.470;2023-06-22T14:36:28;22.30;66.30
78619;DHT22;67941;52.506;5.470;2023-06-22T14:38:57;22.30;66.30
78619;DHT22;67941;52.506;5.470;2023-06-22T14:41:26;22.30;66.50
78619;DHT22;67941;52.506;5.470;2023-06-22T14:43:55;22.20;66.60
78619;DHT22;67941;52.506;5.470;2023-06-22T14:46:24;22.20;66.90
78619;DHT22;67941;52.506;5.470;2023-06-22T14:48:55;22.20;67.10
78619;DHT22;67941;52.506;5.470;2023-06-22T14:51:24;22.20;67.30
78619;DHT22;67941;52.506;5.470;2023-06-22T14:53:53;22.10;67.30
78619;DHT22;67941;52.506;5.470;2023-06-22T14:56:22;22.10;67.50
78619;DHT22;67941;52.506;5.470;2023-06-22T14:58:51;22.00;67.70
78619;DHT22;67941;52.506;5.470;2023-06-22T15:01:20;22.00;67.90
78619;DHT22;67941;52.506;5.470;2023-06-22T15:03:49;21.90;68.00
78619;DHT22;67941;52.506;5.470;2023-06-22T15:06:21;21.90;68.20
78619;DHT22;67941;52.506;5.470;2023-06-22T15:08:50;21.80;68.40
78619;DHT22;67941;52.506;5.470;2023-06-22T15:11:19;21.70;68.60
78619;DHT22;67941;52.506;5.470;2023-06-22T15:13:48;21.70;68.70
78619;DHT22;67941;52.506;5.470;2023-06-22T15:16:17;21.70;68.80
78619;DHT22;67941;52.506;5.470;2023-06-22T15:18:46;21.70;68.90
78619;DHT22;67941;52.506;5.470;2023-06-22T15:21:15;21.60;69.10
78619;DHT22;67941;52.506;5.470;2023-06-22T15:23:46;21.50;69.20
78619;DHT22;67941;52.506;5.470;2023-06-22T15:26:15;21.50;69.40
78619;DHT22;67941;52.506;5.470;2023-06-22T15:28:44;21.50;69.50
78619;DHT22;67941;52.506;5.470;2023-06-22T15:31:13;21.50;69.60
78619;DHT22;67941;52.506;5.470;2023-06-22T15:33:42;21.50;69.70
78619;DHT22;67941;52.506;5.470;2023-06-22T15:36:11;21.50;69.80
78619;DHT22;67941;52.506;5.470;2023-06-22T15:38:40;21.40;69.90
78619;DHT22;67941;52.506;5.470;2023-06-22T15:41:12;21.40;70.10
78619;DHT22;67941;52.506;5.470;2023-06-22T15:43:41;21.50;70.30
78619;DHT22;67941;52.506;5.470;2023-06-22T15:46:09;21.50;70.30